Terminal Aerodrome Forecast
Issued by NWS

Current Version | Previous Version | Text Only | Print | Product List | Glossary Off
Versions: 1 2 3 4 5 6 7 8 9 10 11 12 13 14 15 16 17 18 19 20 21 22 23 24 25 26 27 28

000
FTUS41 KILN 261100
TAFLUK
TAF
KLUK 261126Z 2612/2712 19008KT P6SM SCT028 BKN120
     FM261600 21014G22KT P6SM BKN040
     FM261800 21014G24KT P6SM VCTS BKN045CB
      TEMPO 2621/2624 3SM TSRA BR OVC025CB
     FM270100 20010KT P6SM VCSH BKN045
     FM270600 20010KT P6SM BKN015=

USA.gov is the U.S. government's official web portal to all federal, state and local government web resources and services.